createdAt,value
2019-03-28T00:01:12.861Z,86.03
2019-03-28T00:03:41.365Z,86.01
2019-03-28T00:06:09.862Z,85.94
2019-03-28T00:08:38.364Z,85.78
2019-03-28T00:11:06.887Z,85.94
2019-03-28T00:13:35.392Z,85.94
2019-03-28T00:16:04.162Z,86.19
2019-03-28T00:18:32.673Z,86.16
2019-03-28T00:21:01.273Z,86.27
2019-03-28T00:23:32.155Z,86.20
2019-03-28T00:26:00.804Z,86.33
2019-03-28T00:28:29.370Z,86.21
2019-03-28T00:30:57.919Z,86.23
2019-03-28T00:33:26.468Z,86.12
2019-03-28T00:35:54.993Z,86.08
2019-03-28T00:38:23.636Z,86.15
2019-03-28T00:40:52.146Z,85.97
2019-03-28T00:43:23.182Z,85.96
2019-03-28T00:45:51.704Z,85.84
2019-03-28T00:48:20.434Z,85.87
2019-03-28T00:50:49.132Z,86.10
2019-03-28T00:53:17.676Z,86.02
2019-03-28T00:55:46.204Z,86.08
2019-03-28T00:58:17.730Z,86.10
2019-03-28T01:00:46.366Z,86.10
2019-03-28T01:03:15.236Z,85.93
2019-03-28T01:05:43.726Z,85.78
2019-03-28T01:08:12.369Z,85.90
2019-03-28T01:10:40.925Z,85.58
2019-03-28T01:13:09.666Z,85.76
2019-03-28T01:15:38.167Z,86.00
2019-03-28T01:18:06.793Z,86.04
2019-03-28T01:20:35.378Z,85.94
2019-03-28T01:23:03.893Z,85.87
2019-03-28T01:25:32.413Z,86.02
2019-03-28T01:28:00.958Z,85.98
2019-03-28T01:30:29.464Z,86.26
2019-03-28T01:32:59.636Z,85.97
2019-03-28T01:35:29.783Z,85.82
2019-03-28T01:37:59.954Z,86.12
2019-03-28T01:40:28.452Z,86.23
2019-03-28T01:42:57.030Z,86.01
2019-03-28T01:45:25.603Z,86.16
2019-03-28T01:47:54.129Z,86.08
2019-03-28T01:50:25.406Z,85.98
2019-03-28T01:53:01.185Z,86.04
2019-03-28T01:55:27.233Z,86.00
2019-03-28T01:57:55.755Z,85.85
2019-03-28T02:00:24.380Z,85.95
2019-03-28T02:02:52.889Z,86.03
2019-03-28T02:05:21.590Z,86.11
2019-03-28T02:07:50.283Z,86.04
2019-03-28T02:10:18.973Z,86.19
2019-03-28T02:12:47.468Z,86.10
2019-03-28T02:15:16.204Z,86.05
2019-03-28T02:17:44.784Z,86.03
2019-03-28T02:20:13.485Z,85.83
2019-03-28T02:22:41.968Z,85.73
2019-03-28T02:25:10.794Z,85.67
2019-03-28T02:27:39.311Z,85.67
2019-03-28T02:30:11.447Z,85.85
2019-03-28T02:32:40.024Z,85.86
2019-03-28T02:35:09.217Z,85.84
2019-03-28T02:37:37.828Z,85.62
2019-03-28T02:40:10.743Z,85.58
2019-03-28T02:42:39.298Z,85.81
2019-03-28T02:45:08.419Z,85.70
2019-03-28T02:47:36.912Z,85.76
2019-03-28T02:50:09.387Z,85.74
2019-03-28T02:52:37.880Z,85.87
2019-03-28T02:55:10.245Z,86.15
2019-03-28T02:57:42.056Z,85.96
2019-03-28T03:00:09.825Z,85.98
2019-03-28T03:02:38.434Z,86.02
2019-03-28T03:05:10.356Z,86.26
2019-03-28T03:07:38.888Z,86.31
2019-03-28T03:10:09.249Z,86.23
2019-03-28T03:12:37.749Z,86.26
2019-03-28T03:15:08.044Z,86.10
2019-03-28T03:17:36.547Z,85.94
2019-03-28T03:20:06.758Z,86.18
2019-03-28T03:22:35.259Z,86.29
2019-03-28T03:25:05.973Z,86.20
2019-03-28T03:27:37.627Z,85.98
2019-03-28T03:30:08.112Z,85.86
2019-03-28T03:32:36.757Z,85.96
2019-03-28T03:35:06.099Z,86.09
2019-03-28T03:37:34.794Z,86.24
2019-03-28T03:40:05.753Z,86.27
2019-03-28T03:42:34.417Z,86.14
2019-03-28T03:45:06.278Z,86.10
2019-03-28T03:47:34.774Z,86.13
2019-03-28T03:50:07.505Z,86.12
2019-03-28T03:52:36.063Z,86.04
2019-03-28T03:55:06.699Z,86.08
2019-03-28T03:57:35.183Z,86.17
2019-03-28T04:00:05.742Z,86.19
2019-03-28T04:02:34.219Z,86.26
2019-03-28T04:05:02.852Z,86.22
2019-03-28T04:07:31.431Z,86.16
2019-03-28T04:09:59.939Z,86.05
2019-03-28T04:12:31.223Z,86.16
2019-03-28T04:14:59.804Z,85.98
2019-03-28T04:17:28.289Z,86.02
2019-03-28T04:19:56.825Z,85.87
2019-03-28T04:22:25.320Z,85.88
2019-03-28T04:24:53.914Z,85.96
2019-03-28T04:27:22.462Z,85.97
2019-03-28T04:29:50.962Z,86.18
2019-03-28T04:32:20.579Z,86.09
2019-03-28T04:34:49.362Z,86.03
2019-03-28T04:37:18.618Z,86.07
2019-03-28T04:39:49.413Z,86.12
2019-03-28T04:42:20.197Z,86.09
2019-03-28T04:44:48.698Z,86.13
2019-03-28T04:47:17.262Z,86.13
2019-03-28T04:49:45.763Z,86.32
2019-03-28T04:52:14.781Z,86.15
2019-03-28T04:54:43.269Z,86.02
2019-03-28T04:57:11.830Z,86.10
2019-03-28T04:59:40.421Z,86.10
2019-03-28T05:02:09.971Z,86.40
2019-03-28T05:04:38.501Z,86.41
2019-03-28T05:07:07.011Z,86.53
2019-03-28T05:09:35.578Z,86.25
2019-03-28T05:12:04.162Z,86.34
2019-03-28T05:14:32.691Z,86.25
2019-03-28T05:17:01.259Z,86.27
2019-03-28T05:19:29.761Z,86.15
2019-03-28T05:21:58.362Z,86.33
2019-03-28T05:24:26.995Z,86.44
2019-03-28T05:26:56.105Z,86.45
2019-03-28T05:29:26.525Z,86.43
2019-03-28T05:31:54.883Z,86.42
2019-03-28T05:34:23.393Z,86.47
2019-03-28T05:36:52.303Z,86.51
2019-03-28T05:39:20.979Z,86.61
2019-03-28T05:41:49.507Z,86.55
2019-03-28T05:44:18.022Z,86.48
2019-03-28T05:46:46.539Z,86.41
2019-03-28T05:49:15.063Z,86.31
2019-03-28T05:51:43.560Z,86.47
2019-03-28T05:54:13.691Z,86.59
2019-03-28T05:56:42.261Z,86.55
2019-03-28T05:59:11.603Z,86.51
2019-03-28T06:01:42.215Z,86.50
2019-03-28T06:04:10.780Z,86.70
2019-03-28T06:06:39.528Z,86.40
2019-03-28T06:09:11.321Z,86.30
2019-03-28T06:11:39.864Z,86.32
2019-03-28T06:14:19.652Z,86.31
2019-03-28T06:16:48.176Z,86.28
2019-03-28T06:19:16.705Z,86.24
2019-03-28T06:21:45.228Z,86.14
2019-03-28T06:24:16.496Z,86.21
2019-03-28T06:26:49.962Z,86.48
2019-03-28T06:29:24.022Z,86.17
2019-03-28T06:31:55.227Z,85.76
2019-03-28T06:34:20.431Z,85.56
2019-03-28T06:36:48.903Z,85.40
2019-03-28T06:39:17.391Z,85.15
2019-03-28T06:41:45.903Z,85.01
2019-03-28T06:44:14.414Z,85.01
2019-03-28T06:46:42.952Z,84.90
2019-03-28T06:49:11.795Z,84.91
2019-03-28T06:51:40.301Z,84.83
2019-03-28T06:54:08.807Z,84.70
2019-03-28T06:56:37.327Z,84.77
2019-03-28T06:59:06.007Z,84.69
2019-03-28T07:01:34.524Z,84.72
2019-03-28T07:04:06.123Z,84.65
2019-03-28T07:06:34.694Z,84.55
2019-03-28T07:09:04.265Z,84.54
2019-03-28T07:11:33.229Z,84.54
2019-03-28T07:14:02.378Z,84.51
2019-03-28T07:16:30.941Z,84.49
2019-03-28T07:18:59.465Z,84.47
2019-03-28T07:21:30.157Z,84.31
2019-03-28T07:23:58.697Z,84.43
2019-03-28T07:26:27.275Z,84.39
2019-03-28T07:28:55.945Z,84.33
2019-03-28T07:31:24.535Z,84.16
2019-03-28T07:33:55.785Z,84.20
2019-03-28T07:36:24.266Z,84.21
2019-03-28T07:38:52.820Z,84.15
2019-03-28T07:41:24.178Z,84.20
2019-03-28T07:43:52.678Z,84.12
2019-03-28T07:46:21.182Z,83.95
2019-03-28T07:48:49.710Z,83.81
2019-03-28T07:51:18.212Z,83.91
2019-03-28T07:53:47.419Z,83.99
2019-03-28T07:56:16.008Z,83.85
2019-03-28T07:58:44.619Z,83.76
2019-03-28T08:01:13.097Z,83.74
2019-03-28T08:03:41.617Z,83.71
2019-03-28T08:06:12.795Z,83.63
2019-03-28T08:08:44.056Z,83.53
2019-03-28T08:11:11.166Z,83.50
2019-03-28T08:13:39.696Z,83.44
2019-03-28T08:16:08.195Z,83.43
2019-03-28T08:18:38.245Z,83.34
2019-03-28T08:21:06.753Z,83.37
2019-03-28T08:23:35.618Z,83.23
2019-03-28T08:26:04.513Z,83.34
2019-03-28T08:28:33.066Z,83.39
2019-03-28T08:31:04.510Z,83.37
2019-03-28T08:33:33.576Z,83.40
2019-03-28T08:36:04.562Z,83.32
2019-03-28T08:38:35.750Z,83.35
2019-03-28T08:41:06.978Z,83.24
2019-03-28T08:43:36.108Z,83.43
2019-03-28T08:46:04.830Z,83.36
2019-03-28T08:48:34.854Z,83.34
2019-03-28T08:51:06.576Z,83.18
2019-03-28T08:53:37.640Z,83.04
2019-03-28T08:56:06.040Z,82.95
2019-03-28T08:58:37.870Z,82.93
2019-03-28T09:01:06.393Z,82.93
2019-03-28T09:03:34.894Z,82.90
2019-03-28T09:06:03.590Z,82.61
2019-03-28T09:08:32.044Z,82.43
2019-03-28T09:11:00.569Z,82.11
2019-03-28T09:13:29.124Z,81.93
2019-03-28T09:15:57.695Z,81.56
2019-03-28T09:18:26.218Z,80.87
2019-03-28T09:20:54.812Z,80.49
2019-03-28T09:23:23.388Z,80.42
2019-03-28T09:25:52.054Z,80.10
2019-03-28T09:28:20.613Z,80.07
2019-03-28T09:30:49.849Z,80.04
2019-03-28T09:33:18.549Z,79.89
2019-03-28T09:35:47.177Z,79.76
2019-03-28T09:38:17.230Z,79.29
2019-03-28T09:40:57.042Z,78.78
2019-03-28T09:43:25.574Z,78.31
2019-03-28T09:45:54.155Z,78.43
2019-03-28T09:48:22.857Z,78.15
2019-03-28T09:50:51.421Z,77.69
2019-03-28T09:53:19.951Z,77.62
2019-03-28T09:55:48.509Z,77.79
2019-03-28T09:58:17.007Z,77.30
2019-03-28T10:00:46.089Z,76.95
2019-03-28T10:03:17.404Z,76.77
2019-03-28T10:05:45.902Z,77.09
2019-03-28T10:08:14.498Z,77.09
2019-03-28T10:10:43.136Z,76.83
2019-03-28T10:13:13.167Z,76.82
2019-03-28T10:15:41.840Z,76.89
2019-03-28T10:18:10.425Z,77.09
2019-03-28T10:20:41.013Z,76.89
2019-03-28T10:23:12.587Z,76.94
2019-03-28T10:25:41.397Z,76.18
2019-03-28T10:28:09.881Z,76.12
2019-03-28T10:30:40.768Z,75.82
2019-03-28T10:33:09.577Z,75.83
2019-03-28T10:35:38.238Z,75.68
2019-03-28T10:38:08.541Z,75.83
2019-03-28T10:40:37.168Z,75.61
2019-03-28T10:43:07.283Z,75.57
2019-03-28T10:45:36.833Z,75.68
2019-03-28T10:48:05.471Z,75.34
2019-03-28T10:50:41.486Z,75.42
2019-03-28T10:53:04.349Z,75.51
2019-03-28T10:55:32.873Z,75.86
2019-03-28T10:58:17.232Z,75.97
2019-03-28T11:00:32.785Z,75.73
2019-03-28T11:03:01.359Z,75.95
2019-03-28T11:05:32.633Z,76.13
2019-03-28T11:08:01.142Z,76.14
2019-03-28T11:10:30.640Z,76.23
2019-03-28T11:12:59.485Z,76.03
2019-03-28T11:15:28.039Z,76.07
2019-03-28T11:17:56.638Z,75.78
2019-03-28T11:20:25.496Z,76.03
2019-03-28T11:22:54.012Z,76.02
2019-03-28T11:25:24.378Z,75.86
2019-03-28T11:27:52.908Z,75.94
2019-03-28T11:30:23.024Z,76.05
2019-03-28T11:32:51.522Z,75.77
2019-03-28T11:35:21.875Z,75.88
2019-03-28T11:37:53.358Z,75.98
2019-03-28T11:40:24.571Z,75.85
2019-03-28T11:42:55.558Z,75.92
2019-03-28T11:45:26.940Z,75.82
2019-03-28T11:47:55.980Z,75.98
2019-03-28T11:50:24.632Z,76.20
2019-03-28T11:52:53.248Z,76.26
2019-03-28T11:55:21.827Z,76.25
2019-03-28T11:57:50.356Z,76.28
2019-03-28T12:00:19.704Z,76.36
2019-03-28T12:02:48.214Z,76.59
2019-03-28T12:05:16.893Z,76.44
2019-03-28T12:07:45.488Z,76.42
2019-03-28T12:10:14.550Z,76.48
2019-03-28T12:12:43.207Z,76.51
2019-03-28T12:15:12.981Z,76.49
2019-03-28T12:17:41.550Z,76.58
2019-03-28T12:20:11.703Z,76.68
2019-03-28T12:22:40.348Z,76.80
2019-03-28T12:25:09.042Z,76.92
2019-03-28T12:27:37.715Z,76.88
2019-03-28T12:30:08.553Z,76.96
2019-03-28T12:32:37.089Z,77.11
2019-03-28T12:35:07.860Z,77.42
2019-03-28T12:37:36.842Z,77.37
2019-03-28T12:40:08.504Z,77.31
2019-03-28T12:42:37.166Z,77.16
2019-03-28T12:45:12.951Z,77.21
2019-03-28T12:47:43.145Z,77.20
2019-03-28T12:50:13.191Z,77.18
2019-03-28T12:52:41.846Z,77.22
2019-03-28T12:55:10.983Z,76.92
2019-03-28T12:57:39.626Z,77.01
2019-03-28T13:00:10.381Z,77.01
2019-03-28T13:02:39.471Z,76.95
2019-03-28T13:05:09.844Z,76.92
2019-03-28T13:07:38.374Z,76.85
2019-03-28T13:10:12.589Z,76.94
2019-03-28T13:12:41.173Z,76.97
2019-03-28T13:15:10.390Z,76.94
2019-03-28T13:17:38.911Z,77.11
2019-03-28T13:20:09.462Z,77.12
2019-03-28T13:22:38.045Z,77.33
2019-03-28T13:25:09.880Z,77.54
2019-03-28T13:27:38.435Z,77.64
2019-03-28T13:30:10.250Z,77.56
2019-03-28T13:32:41.972Z,78.10
2019-03-28T13:35:09.747Z,78.18
2019-03-28T13:37:38.228Z,78.24
2019-03-28T13:40:08.664Z,78.58
2019-03-28T13:42:40.930Z,78.41
2019-03-28T13:45:11.555Z,78.46
2019-03-28T13:47:40.125Z,78.50
2019-03-28T13:50:10.938Z,78.48
2019-03-28T13:52:41.890Z,78.41
2019-03-28T13:55:13.546Z,78.33
2019-03-28T13:57:43.507Z,78.23
2019-03-28T14:00:13.709Z,78.09
2019-03-28T14:02:55.495Z,78.00
2019-03-28T14:05:14.117Z,77.61
2019-03-28T14:07:42.579Z,77.28
2019-03-28T14:10:11.543Z,77.20
2019-03-28T14:12:40.043Z,77.11
2019-03-28T14:15:12.243Z,76.96
2019-03-28T14:17:40.723Z,77.00
2019-03-28T14:20:14.644Z,76.86
2019-03-28T14:22:43.172Z,76.84
2019-03-28T14:25:12.054Z,76.81
2019-03-28T14:27:40.530Z,76.99
2019-03-28T14:30:11.636Z,77.15
2019-03-28T14:32:52.496Z,76.97
2019-03-28T14:35:10.808Z,77.09
2019-03-28T14:37:40.731Z,77.01
2019-03-28T14:40:11.833Z,77.04
2019-03-28T14:42:40.985Z,77.21
2019-03-28T14:45:09.952Z,77.31
2019-03-28T14:47:42.006Z,77.41
2019-03-28T14:50:11.994Z,77.77
2019-03-28T14:52:40.546Z,77.96
2019-03-28T14:55:09.220Z,78.05
2019-03-28T14:57:38.250Z,78.45
2019-03-28T15:00:10.005Z,78.55
2019-03-28T15:02:38.555Z,78.72
2019-03-28T15:05:07.324Z,79.12
2019-03-28T15:07:35.798Z,79.30
2019-03-28T15:10:07.013Z,79.11
2019-03-28T15:12:35.478Z,79.30
2019-03-28T15:15:04.561Z,79.50
2019-03-28T15:17:33.032Z,79.59
2019-03-28T15:20:01.617Z,79.52
2019-03-28T15:22:30.102Z,79.57
2019-03-28T15:24:58.586Z,79.76
2019-03-28T15:27:28.518Z,79.71
2019-03-28T15:29:57.030Z,79.61
2019-03-28T15:32:25.571Z,79.73
2019-03-28T15:34:54.057Z,79.79
2019-03-28T15:37:27.478Z,79.75
2019-03-28T15:40:18.714Z,79.80
2019-03-28T15:42:47.523Z,79.93
2019-03-28T15:45:16.162Z,80.02
2019-03-28T15:47:44.634Z,79.96
2019-03-28T15:50:13.321Z,79.96
2019-03-28T15:52:41.878Z,79.93
2019-03-28T15:55:10.544Z,79.71
2019-03-28T15:57:40.866Z,79.63
2019-03-28T16:00:11.017Z,79.53
2019-03-28T16:02:42.809Z,79.60
2019-03-28T16:05:14.553Z,79.63
2019-03-28T16:07:43.655Z,79.75
2019-03-28T16:10:14.770Z,79.77
2019-03-28T16:12:44.356Z,79.62
2019-03-28T16:15:14.425Z,79.58
2019-03-28T16:17:42.973Z,79.70
2019-03-28T16:20:12.116Z,79.60
2019-03-28T16:22:40.579Z,79.84
2019-03-28T16:25:09.349Z,79.81
2019-03-28T16:27:37.828Z,79.77
2019-03-28T16:30:30.108Z,79.85
2019-03-28T16:32:58.650Z,79.81
2019-03-28T16:35:27.160Z,79.62
2019-03-28T16:37:55.656Z,79.70
2019-03-28T16:40:24.254Z,79.52
2019-03-28T16:42:52.747Z,79.51
2019-03-28T16:45:21.397Z,79.62
2019-03-28T16:47:49.871Z,79.68
2019-03-28T16:50:19.259Z,79.60
2019-03-28T16:52:48.287Z,79.54
2019-03-28T16:55:26.229Z,79.41
2019-03-28T16:57:47.263Z,79.20
2019-03-28T17:00:16.743Z,79.16
2019-03-28T17:02:56.088Z,79.15
2019-03-28T17:05:25.956Z,79.16
2019-03-28T17:07:54.618Z,79.30
2019-03-28T17:10:42.431Z,79.29
2019-03-28T17:13:16.382Z,79.38
2019-03-28T17:15:47.272Z,79.35
2019-03-28T17:18:18.445Z,79.42
2019-03-28T17:20:46.072Z,79.45
2019-03-28T17:23:14.686Z,79.47
2019-03-28T17:25:43.245Z,79.49
2019-03-28T17:28:14.924Z,79.44
2019-03-28T17:30:48.314Z,79.42
2019-03-28T17:33:18.953Z,79.51
2019-03-28T17:35:49.558Z,79.55
2019-03-28T17:38:17.752Z,79.66
2019-03-28T17:40:46.698Z,79.56
2019-03-28T17:43:15.895Z,79.57
2019-03-28T17:45:44.858Z,79.63
2019-03-28T17:48:13.457Z,79.64
2019-03-28T17:50:43.715Z,79.66
2019-03-28T17:53:12.519Z,79.77
2019-03-28T17:55:40.991Z,79.65
2019-03-28T17:58:13.708Z,79.68
2019-03-28T18:00:46.840Z,79.65
2019-03-28T18:03:15.392Z,79.58
2019-03-28T18:05:57.131Z,79.72
2019-03-28T18:08:14.403Z,79.71
2019-03-28T18:10:44.458Z,79.80
2019-03-28T18:13:16.146Z,79.68
2019-03-28T18:15:47.951Z,79.51
2019-03-28T18:18:16.467Z,79.55
2019-03-28T18:20:44.962Z,79.49
2019-03-28T18:23:13.433Z,79.53
2019-03-28T18:25:44.912Z,79.42
2019-03-28T18:28:15.331Z,79.02
2019-03-28T18:30:43.902Z,78.79
2019-03-28T18:33:12.436Z,78.71
2019-03-28T18:35:41.026Z,78.65
2019-03-28T18:38:10.697Z,78.47
2019-03-28T18:40:40.231Z,78.16
2019-03-28T18:43:08.872Z,78.17
2019-03-28T18:45:37.497Z,77.93
2019-03-28T18:48:08.876Z,77.73
2019-03-28T18:50:36.381Z,77.49
2019-03-28T18:53:06.951Z,77.26
2019-03-28T18:55:41.519Z,77.07
2019-03-28T18:58:10.047Z,77.09
2019-03-28T19:00:38.678Z,77.03
2019-03-28T19:03:10.171Z,76.93
2019-03-28T19:05:45.366Z,76.96
2019-03-28T19:08:13.910Z,76.71
2019-03-28T19:10:45.405Z,76.53
2019-03-28T19:13:14.167Z,76.54
2019-03-28T19:15:42.827Z,76.53
2019-03-28T19:18:13.196Z,76.49
2019-03-28T19:20:41.819Z,76.27
2019-03-28T19:23:10.869Z,76.28
2019-03-28T19:25:42.847Z,76.41
2019-03-28T19:28:27.643Z,76.52
2019-03-28T19:30:46.980Z,76.51
2019-03-28T19:33:15.477Z,76.29
2019-03-28T19:35:45.240Z,76.23
2019-03-28T19:38:13.811Z,76.18
2019-03-28T19:40:42.452Z,76.17
2019-03-28T19:43:20.454Z,76.13
2019-03-28T19:45:46.706Z,75.96
2019-03-28T19:48:15.258Z,75.94
2019-03-28T19:50:46.540Z,75.84
2019-03-28T19:53:19.328Z,75.86
2019-03-28T19:55:49.362Z,75.78
2019-03-28T19:58:17.897Z,75.74
2019-03-28T20:00:46.539Z,75.80
2019-03-28T20:03:15.002Z,75.53
2019-03-28T20:05:47.823Z,75.58
2019-03-28T20:08:15.961Z,75.43
2019-03-28T20:10:50.296Z,75.29
2019-03-28T20:13:23.869Z,75.35
2019-03-28T20:15:52.806Z,75.43
2019-03-28T20:18:21.355Z,75.26
2019-03-28T20:20:49.912Z,75.22
2019-03-28T20:23:18.560Z,75.24
2019-03-28T20:25:47.162Z,75.26
2019-03-28T20:28:16.394Z,75.29
2019-03-28T20:30:45.103Z,75.46
2019-03-28T20:33:13.569Z,75.17
2019-03-28T20:35:42.198Z,75.07
2019-03-28T20:38:10.744Z,74.84
2019-03-28T20:40:39.401Z,74.87
2019-03-28T20:43:10.643Z,74.77
2019-03-28T20:45:39.180Z,74.77
2019-03-28T20:48:12.137Z,74.91
2019-03-28T20:50:45.518Z,74.85
2019-03-28T20:53:13.392Z,75.11
2019-03-28T20:55:44.859Z,75.21
2019-03-28T20:58:13.545Z,75.09
2019-03-28T21:00:44.399Z,75.04
2019-03-28T21:03:15.024Z,75.22
2019-03-28T21:05:45.080Z,75.22
2019-03-28T21:08:13.869Z,75.32
2019-03-28T21:10:42.415Z,75.45
2019-03-28T21:13:10.993Z,75.48
2019-03-28T21:15:39.539Z,75.33
2019-03-28T21:18:08.074Z,75.33
2019-03-28T21:20:36.791Z,75.32
2019-03-28T21:23:05.531Z,75.25
2019-03-28T21:25:34.033Z,75.36
2019-03-28T21:28:02.594Z,75.45
2019-03-28T21:30:31.176Z,75.44
2019-03-28T21:32:59.740Z,75.51
2019-03-28T21:35:28.286Z,75.57
2019-03-28T21:37:56.788Z,75.54
2019-03-28T21:40:25.319Z,75.59
2019-03-28T21:42:53.776Z,75.67
2019-03-28T21:45:22.555Z,75.67
2019-03-28T21:47:51.149Z,75.57
2019-03-28T21:50:19.778Z,75.62
2019-03-28T21:52:48.435Z,75.54
2019-03-28T21:55:18.711Z,75.58
2019-03-28T21:57:47.193Z,75.71
2019-03-28T22:00:17.182Z,75.76
2019-03-28T22:02:45.786Z,75.70
2019-03-28T22:05:14.512Z,75.75
2019-03-28T22:07:42.995Z,75.75
2019-03-28T22:10:11.745Z,75.77
2019-03-28T22:12:40.307Z,75.69
2019-03-28T22:15:09.691Z,75.73
2019-03-28T22:17:41.972Z,75.81
2019-03-28T22:20:10.968Z,75.95
2019-03-28T22:22:39.607Z,75.96
2019-03-28T22:25:08.348Z,75.96
2019-03-28T22:27:36.943Z,75.96
2019-03-28T22:30:07.202Z,75.92
2019-03-28T22:32:35.752Z,75.98
2019-03-28T22:35:28.727Z,76.04
2019-03-28T22:37:57.214Z,76.10
2019-03-28T22:40:25.758Z,76.28
2019-03-28T22:42:54.245Z,76.24
2019-03-28T22:45:22.932Z,76.14
2019-03-28T22:47:51.438Z,76.15
2019-03-28T22:50:20.017Z,76.14
2019-03-28T22:52:48.532Z,76.18
2019-03-28T22:55:17.184Z,76.25
2019-03-28T22:57:45.688Z,76.33
2019-03-28T23:00:15.558Z,76.30
2019-03-28T23:02:44.180Z,76.23
2019-03-28T23:05:13.506Z,76.35
2019-03-28T23:07:41.988Z,76.37
2019-03-28T23:10:11.463Z,76.34
2019-03-28T23:12:40.058Z,76.37
2019-03-28T23:15:10.856Z,76.47
2019-03-28T23:17:39.480Z,76.55
2019-03-28T23:20:09.921Z,76.51
2019-03-28T23:22:38.492Z,76.49
2019-03-28T23:25:09.113Z,76.51
2019-03-28T23:27:37.673Z,76.66
2019-03-28T23:30:09.351Z,76.73
2019-03-28T23:32:38.754Z,76.74
2019-03-28T23:35:08.213Z,76.72
2019-03-28T23:37:36.701Z,76.62
2019-03-28T23:40:09.899Z,76.56
2019-03-28T23:42:38.478Z,76.62
2019-03-28T23:45:11.896Z,76.70
2019-03-28T23:47:41.940Z,76.71
2019-03-28T23:50:10.585Z,76.79
2019-03-28T23:52:39.069Z,76.77
2019-03-28T23:55:09.281Z,76.80
2019-03-28T23:57:37.753Z,76.87
